Grandview, Illinois
Current Conditions -  °F | °C
As of 12:52 AM on Tuesday 21 Oct 2014 (Local Time) from KSPI Reporting Station
Clear Clear  
Wind Chill: 43°   Ceiling: Unl
Heat Index: 45°   Visibility: 10mi
Dew Point: 41°   Wind: 5mph
Humidity: 86%   Direction: 350°N
Pressure: 30.01"   Gusts: NA
Location:  39.8235°N, 89.6438°W
Report Text: KSPI 210552Z AUTO 35004KT 10SM CLR 07/05 A3001 RMK AO2 SLP161 T00720050 10156 20072 402280072 53003
Loading
Personal Weather Stations






























Interactive Weather Map
Tropical Storm Tracking
New forecast layout! Learn more

10-Day Weather Forecast

Advertisements
Track Severe Weather on mobile